FDPP

Piggs Peak

Piggs Peak, Swaziland
METAR FDPP 181900Z AUTO 06008KT //// // ////// 19/16 Q1020
Observed Flight Rules
Dec-18 @ 19:00 UTC (an hour ago)
Wind
60° at 8 knots
Temperatures Readings
Current 19°C / 66°F
Dewpoint 16°C / 61°F
Humidity 83%
Altimeter 30.12" Hg
Pressure 1020 hPa
Elevation 1099
METAR FDPP 181900Z AUTO 06008KT //// // ////// 19/16 Q1020
Observed Flight Rules
Dec-18 @ 19:00 UTC
(an hour ago)
Wind
60° at 8 knots
Temperature Dewpoint
19°C / 66°F 16°C / 61°F
Humidity Altimeter Pressure
83% 30.12" Hg 1020 hPa